sensor_id;sensor_type;location;lat;lon;timestamp;temperature;humidity
6756;DHT22;3415;51.148;7.014;2023-03-14T00:01:28;11.00;1.00
6756;DHT22;3415;51.148;7.014;2023-03-14T00:03:54;11.00;1.00
6756;DHT22;3415;51.148;7.014;2023-03-14T00:06:22;11.00;1.00
6756;DHT22;3415;51.148;7.014;2023-03-14T00:08:49;11.00;1.00
6756;DHT22;3415;51.148;7.014;2023-03-14T00:11:19;10.90;1.00
6756;DHT22;3415;51.148;7.014;2023-03-14T00:13:47;11.00;1.00
6756;DHT22;3415;51.148;7.014;2023-03-14T00:16:14;11.00;1.00
6756;DHT22;3415;51.148;7.014;2023-03-14T00:18:41;11.00;1.00
6756;DHT22;3415;51.148;7.014;2023-03-14T00:21:09;11.00;1.00
6756;DHT22;3415;51.148;7.014;2023-03-14T00:23:37;11.00;1.00
6756;DHT22;3415;51.148;7.014;2023-03-14T00:26:07;11.10;1.00
6756;DHT22;3415;51.148;7.014;2023-03-14T00:28:36;11.00;1.00
6756;DHT22;3415;51.148;7.014;2023-03-14T00:31:04;11.10;1.00
6756;DHT22;3415;51.148;7.014;2023-03-14T00:33:31;11.10;1.00
6756;DHT22;3415;51.148;7.014;2023-03-14T00:35:59;11.20;1.00
6756;DHT22;3415;51.148;7.014;2023-03-14T00:38:26;11.20;1.00
6756;DHT22;3415;51.148;7.014;2023-03-14T00:40:54;11.30;1.00
6756;DHT22;3415;51.148;7.014;2023-03-14T00:43:21;11.30;1.00
6756;DHT22;3415;51.148;7.014;2023-03-14T00:45:50;11.20;1.00
6756;DHT22;3415;51.148;7.014;2023-03-14T00:48:17;11.20;1.00
6756;DHT22;3415;51.148;7.014;2023-03-14T00:50:44;11.30;1.00
6756;DHT22;3415;51.148;7.014;2023-03-14T00:53:12;11.30;1.00
6756;DHT22;3415;51.148;7.014;2023-03-14T00:55:40;11.30;1.00
6756;DHT22;3415;51.148;7.014;2023-03-14T00:58:08;11.30;1.00
6756;DHT22;3415;51.148;7.014;2023-03-14T01:00:35;11.10;1.00
6756;DHT22;3415;51.148;7.014;2023-03-14T01:03:04;11.10;1.00
6756;DHT22;3415;51.148;7.014;2023-03-14T01:05:31;10.70;1.00
6756;DHT22;3415;51.148;7.014;2023-03-14T01:07:58;10.70;1.00
6756;DHT22;3415;51.148;7.014;2023-03-14T01:10:25;10.20;1.00
6756;DHT22;3415;51.148;7.014;2023-03-14T01:12:52;9.50;1.00
6756;DHT22;3415;51.148;7.014;2023-03-14T01:15:19;9.50;1.00
6756;DHT22;3415;51.148;7.014;2023-03-14T01:17:46;9.30;1.00
6756;DHT22;3415;51.148;7.014;2023-03-14T01:20:15;9.10;1.00
6756;DHT22;3415;51.148;7.014;2023-03-14T01:22:43;9.00;1.00
6756;DHT22;3415;51.148;7.014;2023-03-14T01:25:13;9.00;1.00
6756;DHT22;3415;51.148;7.014;2023-03-14T01:27:40;9.00;1.00
6756;DHT22;3415;51.148;7.014;2023-03-14T01:30:08;8.90;1.00
6756;DHT22;3415;51.148;7.014;2023-03-14T01:32:36;8.90;1.00
6756;DHT22;3415;51.148;7.014;2023-03-14T01:35:03;8.90;1.00
6756;DHT22;3415;51.148;7.014;2023-03-14T01:37:31;8.90;1.00
6756;DHT22;3415;51.148;7.014;2023-03-14T01:39:58;8.90;1.00
6756;DHT22;3415;51.148;7.014;2023-03-14T01:42:25;8.90;1.00
6756;DHT22;3415;51.148;7.014;2023-03-14T01:44:53;8.80;1.00
6756;DHT22;3415;51.148;7.014;2023-03-14T01:47:21;8.90;1.00
6756;DHT22;3415;51.148;7.014;2023-03-14T01:49:50;8.80;1.00
6756;DHT22;3415;51.148;7.014;2023-03-14T01:52:23;8.80;1.00
6756;DHT22;3415;51.148;7.014;2023-03-14T01:54:54;8.90;1.00
6756;DHT22;3415;51.148;7.014;2023-03-14T01:57:23;8.90;1.00
6756;DHT22;3415;51.148;7.014;2023-03-14T01:59:54;8.90;1.00
6756;DHT22;3415;51.148;7.014;2023-03-14T02:02:24;8.90;1.00
6756;DHT22;3415;51.148;7.014;2023-03-14T02:04:52;9.00;1.00
6756;DHT22;3415;51.148;7.014;2023-03-14T02:07:23;9.00;1.00
6756;DHT22;3415;51.148;7.014;2023-03-14T02:09:52;9.00;1.00
6756;DHT22;3415;51.148;7.014;2023-03-14T02:12:21;9.00;1.00
6756;DHT22;3415;51.148;7.014;2023-03-14T02:14:48;9.10;1.00
6756;DHT22;3415;51.148;7.014;2023-03-14T02:17:17;9.10;1.00
6756;DHT22;3415;51.148;7.014;2023-03-14T02:19:50;9.10;1.00
6756;DHT22;3415;51.148;7.014;2023-03-14T02:22:20;9.10;1.00
6756;DHT22;3415;51.148;7.014;2023-03-14T02:24:56;9.10;1.00
6756;DHT22;3415;51.148;7.014;2023-03-14T02:27:26;9.10;1.00
6756;DHT22;3415;51.148;7.014;2023-03-14T02:29:57;9.10;1.00
6756;DHT22;3415;51.148;7.014;2023-03-14T02:32:26;9.10;1.00
6756;DHT22;3415;51.148;7.014;2023-03-14T02:34:56;9.10;1.00
6756;DHT22;3415;51.148;7.014;2023-03-14T02:37:27;9.20;1.00
6756;DHT22;3415;51.148;7.014;2023-03-14T02:39:55;9.20;1.00
6756;DHT22;3415;51.148;7.014;2023-03-14T02:42:22;9.20;1.00
6756;DHT22;3415;51.148;7.014;2023-03-14T02:44:52;9.30;1.00
6756;DHT22;3415;51.148;7.014;2023-03-14T02:47:24;9.30;1.00
6756;DHT22;3415;51.148;7.014;2023-03-14T02:49:55;9.30;1.00
6756;DHT22;3415;51.148;7.014;2023-03-14T02:52:25;9.30;1.00
6756;DHT22;3415;51.148;7.014;2023-03-14T02:54:51;9.40;1.00
6756;DHT22;3415;51.148;7.014;2023-03-14T02:57:18;9.30;1.00
6756;DHT22;3415;51.148;7.014;2023-03-14T02:59:45;9.30;1.00
6756;DHT22;3415;51.148;7.014;2023-03-14T03:02:13;9.30;1.00
6756;DHT22;3415;51.148;7.014;2023-03-14T03:04:40;9.30;1.00
6756;DHT22;3415;51.148;7.014;2023-03-14T03:09:34;9.30;1.00
6756;DHT22;3415;51.148;7.014;2023-03-14T03:14:28;9.40;1.00
6756;DHT22;3415;51.148;7.014;2023-03-14T03:16:55;9.40;1.00
6756;DHT22;3415;51.148;7.014;2023-03-14T03:19:23;9.40;1.00
6756;DHT22;3415;51.148;7.014;2023-03-14T03:21:50;9.40;1.00
6756;DHT22;3415;51.148;7.014;2023-03-14T03:24:17;9.40;1.00
6756;DHT22;3415;51.148;7.014;2023-03-14T03:26:43;9.40;1.00
6756;DHT22;3415;51.148;7.014;2023-03-14T03:29:10;9.40;1.00
6756;DHT22;3415;51.148;7.014;2023-03-14T03:31:37;9.40;1.00
6756;DHT22;3415;51.148;7.014;2023-03-14T03:34:04;9.40;1.00
6756;DHT22;3415;51.148;7.014;2023-03-14T03:36:32;9.30;1.00
6756;DHT22;3415;51.148;7.014;2023-03-14T03:38:59;9.20;1.00
6756;DHT22;3415;51.148;7.014;2023-03-14T03:41:26;9.20;1.00
6756;DHT22;3415;51.148;7.014;2023-03-14T03:43:53;9.20;1.00
6756;DHT22;3415;51.148;7.014;2023-03-14T03:46:20;9.20;1.00
6756;DHT22;3415;51.148;7.014;2023-03-14T03:48:47;9.20;1.00
6756;DHT22;3415;51.148;7.014;2023-03-14T03:51:14;9.20;1.00
6756;DHT22;3415;51.148;7.014;2023-03-14T03:53:43;9.10;1.00
6756;DHT22;3415;51.148;7.014;2023-03-14T03:56:10;9.10;1.00
6756;DHT22;3415;51.148;7.014;2023-03-14T03:58:36;9.00;1.00
6756;DHT22;3415;51.148;7.014;2023-03-14T04:01:04;9.00;1.00
6756;DHT22;3415;51.148;7.014;2023-03-14T04:03:32;9.00;1.00
6756;DHT22;3415;51.148;7.014;2023-03-14T04:05:59;8.90;1.00
6756;DHT22;3415;51.148;7.014;2023-03-14T04:08:26;8.90;40.10
6756;DHT22;3415;51.148;7.014;2023-03-14T04:10:56;8.90;97.60
6756;DHT22;3415;51.148;7.014;2023-03-14T04:13:22;8.90;99.10
6756;DHT22;3415;51.148;7.014;2023-03-14T04:15:49;8.90;99.90
6756;DHT22;3415;51.148;7.014;2023-03-14T04:18:16;8.80;99.90
6756;DHT22;3415;51.148;7.014;2023-03-14T04:20:43;8.90;99.90
6756;DHT22;3415;51.148;7.014;2023-03-14T04:23:10;8.90;99.90
6756;DHT22;3415;51.148;7.014;2023-03-14T04:25:37;8.90;99.90
6756;DHT22;3415;51.148;7.014;2023-03-14T04:28:05;8.90;99.90
6756;DHT22;3415;51.148;7.014;2023-03-14T04:30:32;8.90;99.90
6756;DHT22;3415;51.148;7.014;2023-03-14T04:32:59;8.90;99.90
6756;DHT22;3415;51.148;7.014;2023-03-14T04:35:26;8.80;99.90
6756;DHT22;3415;51.148;7.014;2023-03-14T04:37:53;8.90;99.90
6756;DHT22;3415;51.148;7.014;2023-03-14T04:40:19;8.90;99.90
6756;DHT22;3415;51.148;7.014;2023-03-14T04:42:46;8.90;99.90
6756;DHT22;3415;51.148;7.014;2023-03-14T04:45:14;8.90;99.90
6756;DHT22;3415;51.148;7.014;2023-03-14T04:47:41;8.90;99.90
6756;DHT22;3415;51.148;7.014;2023-03-14T04:50:09;8.90;99.90
6756;DHT22;3415;51.148;7.014;2023-03-14T04:52:36;8.90;99.90
6756;DHT22;3415;51.148;7.014;2023-03-14T04:55:04;8.90;99.90
6756;DHT22;3415;51.148;7.014;2023-03-14T04:57:31;9.00;99.90
6756;DHT22;3415;51.148;7.014;2023-03-14T04:59:58;9.00;99.90
6756;DHT22;3415;51.148;7.014;2023-03-14T05:02:26;9.00;99.90
6756;DHT22;3415;51.148;7.014;2023-03-14T05:04:53;9.00;99.90
6756;DHT22;3415;51.148;7.014;2023-03-14T05:07:19;9.10;99.90
6756;DHT22;3415;51.148;7.014;2023-03-14T05:09:46;9.30;99.90
6756;DHT22;3415;51.148;7.014;2023-03-14T05:12:13;9.10;94.50
6756;DHT22;3415;51.148;7.014;2023-03-14T05:14:40;9.10;95.90
6756;DHT22;3415;51.148;7.014;2023-03-14T05:17:07;9.10;98.30
6756;DHT22;3415;51.148;7.014;2023-03-14T05:19:35;9.10;96.30
6756;DHT22;3415;51.148;7.014;2023-03-14T05:24:29;9.10;96.30
6756;DHT22;3415;51.148;7.014;2023-03-14T05:26:56;9.10;95.40
6756;DHT22;3415;51.148;7.014;2023-03-14T05:29:23;9.10;96.50
6756;DHT22;3415;51.148;7.014;2023-03-14T05:31:50;9.20;93.20
6756;DHT22;3415;51.148;7.014;2023-03-14T05:34:17;9.30;90.20
6756;DHT22;3415;51.148;7.014;2023-03-14T05:36:45;9.20;90.70
6756;DHT22;3415;51.148;7.014;2023-03-14T05:39:12;9.10;91.20
6756;DHT22;3415;51.148;7.014;2023-03-14T05:41:39;9.20;52.00
6756;DHT22;3415;51.148;7.014;2023-03-14T05:44:05;9.20;40.40
6756;DHT22;3415;51.148;7.014;2023-03-14T05:46:32;9.20;40.40
6756;DHT22;3415;51.148;7.014;2023-03-14T05:48:59;9.10;40.30
6756;DHT22;3415;51.148;7.014;2023-03-14T05:51:26;9.20;43.20
6756;DHT22;3415;51.148;7.014;2023-03-14T05:53:54;9.20;43.00
6756;DHT22;3415;51.148;7.014;2023-03-14T05:56:21;10.70;1.00
6756;DHT22;3415;51.148;7.014;2023-03-14T05:58:48;9.30;1.00
6756;DHT22;3415;51.148;7.014;2023-03-14T06:01:15;9.20;1.00
6756;DHT22;3415;51.148;7.014;2023-03-14T06:06:09;9.30;1.00
6756;DHT22;3415;51.148;7.014;2023-03-14T06:08:36;9.40;1.00
6756;DHT22;3415;51.148;7.014;2023-03-14T06:11:05;9.30;1.00
6756;DHT22;3415;51.148;7.014;2023-03-14T06:13:31;9.30;1.00
6756;DHT22;3415;51.148;7.014;2023-03-14T06:15:58;9.30;1.00
6756;DHT22;3415;51.148;7.014;2023-03-14T06:18:25;9.30;1.00
6756;DHT22;3415;51.148;7.014;2023-03-14T06:20:53;9.30;1.00
6756;DHT22;3415;51.148;7.014;2023-03-14T06:23:21;9.30;1.00
6756;DHT22;3415;51.148;7.014;2023-03-14T06:25:48;9.30;1.00
6756;DHT22;3415;51.148;7.014;2023-03-14T06:28:16;9.30;1.00
6756;DHT22;3415;51.148;7.014;2023-03-14T06:30:43;9.30;1.00
6756;DHT22;3415;51.148;7.014;2023-03-14T06:33:10;9.40;1.00
6756;DHT22;3415;51.148;7.014;2023-03-14T06:35:36;9.40;1.00
6756;DHT22;3415;51.148;7.014;2023-03-14T06:38:03;9.40;1.00
6756;DHT22;3415;51.148;7.014;2023-03-14T06:40:30;9.40;1.00
6756;DHT22;3415;51.148;7.014;2023-03-14T06:42:57;9.40;1.00
6756;DHT22;3415;51.148;7.014;2023-03-14T06:45:25;9.40;1.00
6756;DHT22;3415;51.148;7.014;2023-03-14T06:47:52;9.40;1.00
6756;DHT22;3415;51.148;7.014;2023-03-14T06:50:19;9.40;1.00
6756;DHT22;3415;51.148;7.014;2023-03-14T06:52:47;9.40;1.00
6756;DHT22;3415;51.148;7.014;2023-03-14T06:55:14;9.40;1.00
6756;DHT22;3415;51.148;7.014;2023-03-14T06:57:41;9.40;1.00
6756;DHT22;3415;51.148;7.014;2023-03-14T07:00:11;9.40;1.00
6756;DHT22;3415;51.148;7.014;2023-03-14T07:02:39;9.50;1.00
6756;DHT22;3415;51.148;7.014;2023-03-14T07:05:07;9.50;1.00
6756;DHT22;3415;51.148;7.014;2023-03-14T07:07:35;9.50;1.00
6756;DHT22;3415;51.148;7.014;2023-03-14T07:10:02;9.50;1.00
6756;DHT22;3415;51.148;7.014;2023-03-14T07:12:29;9.50;1.00
6756;DHT22;3415;51.148;7.014;2023-03-14T07:14:57;9.50;1.00
6756;DHT22;3415;51.148;7.014;2023-03-14T07:17:24;9.60;1.00
6756;DHT22;3415;51.148;7.014;2023-03-14T07:19:52;9.50;1.00
6756;DHT22;3415;51.148;7.014;2023-03-14T07:22:19;9.50;1.00
6756;DHT22;3415;51.148;7.014;2023-03-14T07:24:45;9.50;1.00
6756;DHT22;3415;51.148;7.014;2023-03-14T07:27:12;9.50;1.00
6756;DHT22;3415;51.148;7.014;2023-03-14T07:29:39;9.50;1.00
6756;DHT22;3415;51.148;7.014;2023-03-14T07:32:06;9.50;1.00
6756;DHT22;3415;51.148;7.014;2023-03-14T07:34:33;9.60;1.00
6756;DHT22;3415;51.148;7.014;2023-03-14T07:37:02;9.60;1.00
6756;DHT22;3415;51.148;7.014;2023-03-14T07:39:30;9.70;1.00
6756;DHT22;3415;51.148;7.014;2023-03-14T07:41:57;9.70;1.00
6756;DHT22;3415;51.148;7.014;2023-03-14T07:44:24;9.90;1.00
6756;DHT22;3415;51.148;7.014;2023-03-14T07:46:51;9.90;1.00
6756;DHT22;3415;51.148;7.014;2023-03-14T07:49:18;9.90;1.00
6756;DHT22;3415;51.148;7.014;2023-03-14T07:51:47;10.00;1.00
6756;DHT22;3415;51.148;7.014;2023-03-14T07:54:16;10.00;1.00
6756;DHT22;3415;51.148;7.014;2023-03-14T07:56:42;10.10;1.00
6756;DHT22;3415;51.148;7.014;2023-03-14T07:59:09;10.00;1.00
6756;DHT22;3415;51.148;7.014;2023-03-14T08:06:31;9.70;1.00
6756;DHT22;3415;51.148;7.014;2023-03-14T08:08:58;9.80;1.00
6756;DHT22;3415;51.148;7.014;2023-03-14T08:11:26;9.80;1.00
6756;DHT22;3415;51.148;7.014;2023-03-14T08:13:53;9.90;1.00
6756;DHT22;3415;51.148;7.014;2023-03-14T08:16:21;9.90;1.00
6756;DHT22;3415;51.148;7.014;2023-03-14T08:18:48;10.00;1.00
6756;DHT22;3415;51.148;7.014;2023-03-14T08:21:15;10.00;1.00
6756;DHT22;3415;51.148;7.014;2023-03-14T08:23:42;10.10;1.00
6756;DHT22;3415;51.148;7.014;2023-03-14T08:26:10;10.20;1.00
6756;DHT22;3415;51.148;7.014;2023-03-14T08:28:38;10.20;1.00
6756;DHT22;3415;51.148;7.014;2023-03-14T08:31:06;10.30;1.00
6756;DHT22;3415;51.148;7.014;2023-03-14T08:33:33;10.40;1.00
6756;DHT22;3415;51.148;7.014;2023-03-14T08:36:01;10.40;1.00
6756;DHT22;3415;51.148;7.014;2023-03-14T08:38:28;10.50;1.00
6756;DHT22;3415;51.148;7.014;2023-03-14T08:40:56;10.40;1.00
6756;DHT22;3415;51.148;7.014;2023-03-14T08:43:24;10.50;1.00
6756;DHT22;3415;51.148;7.014;2023-03-14T08:45:53;10.50;1.00
6756;DHT22;3415;51.148;7.014;2023-03-14T08:48:20;10.60;1.00
6756;DHT22;3415;51.148;7.014;2023-03-14T08:50:47;10.70;1.00
6756;DHT22;3415;51.148;7.014;2023-03-14T08:53:14;10.70;1.00
6756;DHT22;3415;51.148;7.014;2023-03-14T08:55:40;10.70;1.00
6756;DHT22;3415;51.148;7.014;2023-03-14T08:58:07;10.70;1.00
6756;DHT22;3415;51.148;7.014;2023-03-14T09:00:34;10.70;1.00
6756;DHT22;3415;51.148;7.014;2023-03-14T09:03:02;10.60;1.00
6756;DHT22;3415;51.148;7.014;2023-03-14T09:05:32;10.60;1.00
6756;DHT22;3415;51.148;7.014;2023-03-14T09:07:59;10.60;1.00
6756;DHT22;3415;51.148;7.014;2023-03-14T09:10:26;10.50;1.00
6756;DHT22;3415;51.148;7.014;2023-03-14T09:12:53;10.50;1.00
6756;DHT22;3415;51.148;7.014;2023-03-14T09:15:20;10.40;1.00
6756;DHT22;3415;51.148;7.014;2023-03-14T09:17:46;10.30;1.00
6756;DHT22;3415;51.148;7.014;2023-03-14T09:20:15;10.30;1.00
6756;DHT22;3415;51.148;7.014;2023-03-14T09:22:42;10.30;1.00
6756;DHT22;3415;51.148;7.014;2023-03-14T09:25:09;10.20;1.00
6756;DHT22;3415;51.148;7.014;2023-03-14T09:27:36;10.20;1.00
6756;DHT22;3415;51.148;7.014;2023-03-14T09:30:04;10.10;89.60
6756;DHT22;3415;51.148;7.014;2023-03-14T09:34:58;10.00;99.90
6756;DHT22;3415;51.148;7.014;2023-03-14T09:37:26;10.00;99.90
6756;DHT22;3415;51.148;7.014;2023-03-14T09:39:53;10.00;99.90
6756;DHT22;3415;51.148;7.014;2023-03-14T09:42:22;9.50;99.90
6756;DHT22;3415;51.148;7.014;2023-03-14T09:44:54;9.40;99.90
6756;DHT22;3415;51.148;7.014;2023-03-14T09:47:23;9.40;99.90
6756;DHT22;3415;51.148;7.014;2023-03-14T09:49:50;9.30;99.90
6756;DHT22;3415;51.148;7.014;2023-03-14T09:52:21;9.00;68.00
6756;DHT22;3415;51.148;7.014;2023-03-14T09:54:52;9.00;60.60
6756;DHT22;3415;51.148;7.014;2023-03-14T09:57:23;8.90;1.30
6756;DHT22;3415;51.148;7.014;2023-03-14T09:59:52;8.50;1.00
6756;DHT22;3415;51.148;7.014;2023-03-14T10:02:21;8.30;1.00
6756;DHT22;3415;51.148;7.014;2023-03-14T10:04:50;8.30;1.00
6756;DHT22;3415;51.148;7.014;2023-03-14T10:07:20;8.30;7.80
6756;DHT22;3415;51.148;7.014;2023-03-14T10:09:51;8.30;10.50
6756;DHT22;3415;51.148;7.014;2023-03-14T10:12:18;8.40;17.00
6756;DHT22;3415;51.148;7.014;2023-03-14T10:14:47;8.40;19.30
6756;DHT22;3415;51.148;7.014;2023-03-14T10:17:15;8.50;41.10
6756;DHT22;3415;51.148;7.014;2023-03-14T10:19:52;8.40;7.70
6756;DHT22;3415;51.148;7.014;2023-03-14T10:22:20;8.40;10.10
6756;DHT22;3415;51.148;7.014;2023-03-14T10:24:53;8.40;11.90
6756;DHT22;3415;51.148;7.014;2023-03-14T10:27:26;8.40;17.20
6756;DHT22;3415;51.148;7.014;2023-03-14T10:29:54;8.40;5.60
6756;DHT22;3415;51.148;7.014;2023-03-14T10:32:27;8.30;1.00
6756;DHT22;3415;51.148;7.014;2023-03-14T10:35:19;8.30;1.00
6756;DHT22;3415;51.148;7.014;2023-03-14T10:37:56;8.20;1.00
6756;DHT22;3415;51.148;7.014;2023-03-14T10:40:27;8.30;1.00
6756;DHT22;3415;51.148;7.014;2023-03-14T10:42:55;8.30;1.00
6756;DHT22;3415;51.148;7.014;2023-03-14T10:45:35;8.20;1.00
6756;DHT22;3415;51.148;7.014;2023-03-14T10:48:18;8.20;1.00
6756;DHT22;3415;51.148;7.014;2023-03-14T10:50:56;8.20;1.00
6756;DHT22;3415;51.148;7.014;2023-03-14T10:53:24;8.30;1.00
6756;DHT22;3415;51.148;7.014;2023-03-14T10:55:52;8.30;1.00
6756;DHT22;3415;51.148;7.014;2023-03-14T10:58:24;8.30;1.00
6756;DHT22;3415;51.148;7.014;2023-03-14T11:01:00;8.30;1.00
6756;DHT22;3415;51.148;7.014;2023-03-14T11:03:28;8.40;20.00
6756;DHT22;3415;51.148;7.014;2023-03-14T11:05:58;8.40;24.20
6756;DHT22;3415;51.148;7.014;2023-03-14T11:08:31;8.40;22.50
6756;DHT22;3415;51.148;7.014;2023-03-14T11:11:11;8.40;22.30
6756;DHT22;3415;51.148;7.014;2023-03-14T11:13:44;8.40;25.40
6756;DHT22;3415;51.148;7.014;2023-03-14T11:16:20;8.40;16.20
6756;DHT22;3415;51.148;7.014;2023-03-14T11:19:00;8.10;15.30
6756;DHT22;3415;51.148;7.014;2023-03-14T11:21:34;8.10;25.60
6756;DHT22;3415;51.148;7.014;2023-03-14T11:24:26;8.00;33.50
6756;DHT22;3415;51.148;7.014;2023-03-14T11:27:00;7.70;11.90
6756;DHT22;3415;51.148;7.014;2023-03-14T11:29:36;7.50;12.60
6756;DHT22;3415;51.148;7.014;2023-03-14T11:32:12;7.50;19.30
6756;DHT22;3415;51.148;7.014;2023-03-14T11:34:44;7.50;20.70
6756;DHT22;3415;51.148;7.014;2023-03-14T11:37:18;7.50;27.60
6756;DHT22;3415;51.148;7.014;2023-03-14T11:39:55;7.40;41.60
6756;DHT22;3415;51.148;7.014;2023-03-14T11:42:26;7.40;49.80
6756;DHT22;3415;51.148;7.014;2023-03-14T11:44:54;7.20;41.60
6756;DHT22;3415;51.148;7.014;2023-03-14T11:47:25;7.10;1.00
6756;DHT22;3415;51.148;7.014;2023-03-14T11:49:58;7.20;1.00
6756;DHT22;3415;51.148;7.014;2023-03-14T11:52:30;7.20;1.00
6756;DHT22;3415;51.148;7.014;2023-03-14T11:55:02;7.30;1.00
6756;DHT22;3415;51.148;7.014;2023-03-14T11:57:33;7.40;1.00
6756;DHT22;3415;51.148;7.014;2023-03-14T12:00:04;7.50;1.00
6756;DHT22;3415;51.148;7.014;2023-03-14T12:02:44;7.40;1.00
6756;DHT22;3415;51.148;7.014;2023-03-14T12:05:43;7.10;1.00
6756;DHT22;3415;51.148;7.014;2023-03-14T12:08:42;7.10;1.00
6756;DHT22;3415;51.148;7.014;2023-03-14T12:11:14;7.10;1.00
6756;DHT22;3415;51.148;7.014;2023-03-14T12:13:47;7.10;1.00
6756;DHT22;3415;51.148;7.014;2023-03-14T12:16:33;7.00;1.00
6756;DHT22;3415;51.148;7.014;2023-03-14T12:19:21;7.00;1.00
6756;DHT22;3415;51.148;7.014;2023-03-14T12:21:52;7.00;1.00
6756;DHT22;3415;51.148;7.014;2023-03-14T12:24:24;7.10;1.00
6756;DHT22;3415;51.148;7.014;2023-03-14T12:26:56;7.10;1.00
6756;DHT22;3415;51.148;7.014;2023-03-14T12:29:25;7.10;1.00
6756;DHT22;3415;51.148;7.014;2023-03-14T12:32:07;7.10;1.00
6756;DHT22;3415;51.148;7.014;2023-03-14T12:34:39;7.10;1.00
6756;DHT22;3415;51.148;7.014;2023-03-14T12:37:14;6.90;1.00
6756;DHT22;3415;51.148;7.014;2023-03-14T12:39:50;7.00;1.00
6756;DHT22;3415;51.148;7.014;2023-03-14T12:42:36;7.00;1.00
6756;DHT22;3415;51.148;7.014;2023-03-14T12:45:22;7.00;1.00
6756;DHT22;3415;51.148;7.014;2023-03-14T12:48:02;7.00;1.00
6756;DHT22;3415;51.148;7.014;2023-03-14T12:50:44;7.00;1.00
6756;DHT22;3415;51.148;7.014;2023-03-14T12:53:44;7.20;1.00
6756;DHT22;3415;51.148;7.014;2023-03-14T12:56:28;7.90;1.00
6756;DHT22;3415;51.148;7.014;2023-03-14T12:59:22;8.50;1.00
6756;DHT22;3415;51.148;7.014;2023-03-14T13:01:56;8.80;1.00
6756;DHT22;3415;51.148;7.014;2023-03-14T13:04:28;8.80;1.00
6756;DHT22;3415;51.148;7.014;2023-03-14T13:06:57;8.10;1.00
6756;DHT22;3415;51.148;7.014;2023-03-14T13:09:45;8.00;1.00
6756;DHT22;3415;51.148;7.014;2023-03-14T13:12:17;8.30;1.00
6756;DHT22;3415;51.148;7.014;2023-03-14T13:14:46;8.30;1.00
6756;DHT22;3415;51.148;7.014;2023-03-14T13:17:22;8.60;1.00
6756;DHT22;3415;51.148;7.014;2023-03-14T13:19:51;8.50;1.00
6756;DHT22;3415;51.148;7.014;2023-03-14T13:22:22;8.00;1.00
6756;DHT22;3415;51.148;7.014;2023-03-14T13:24:50;8.00;1.00
6756;DHT22;3415;51.148;7.014;2023-03-14T13:27:19;7.70;1.00
6756;DHT22;3415;51.148;7.014;2023-03-14T13:29:50;7.40;1.00
6756;DHT22;3415;51.148;7.014;2023-03-14T13:32:20;7.40;1.00
6756;DHT22;3415;51.148;7.014;2023-03-14T13:34:48;7.50;1.00
6756;DHT22;3415;51.148;7.014;2023-03-14T13:37:16;7.60;1.00
6756;DHT22;3415;51.148;7.014;2023-03-14T13:39:49;7.80;1.00
6756;DHT22;3415;51.148;7.014;2023-03-14T13:42:17;8.00;1.00
6756;DHT22;3415;51.148;7.014;2023-03-14T13:44:44;8.40;1.00
6756;DHT22;3415;51.148;7.014;2023-03-14T13:47:14;7.90;1.00
6756;DHT22;3415;51.148;7.014;2023-03-14T13:49:43;7.40;1.00
6756;DHT22;3415;51.148;7.014;2023-03-14T13:52:29;7.60;1.00
6756;DHT22;3415;51.148;7.014;2023-03-14T13:54:58;7.80;1.00
6756;DHT22;3415;51.148;7.014;2023-03-14T13:57:26;7.80;1.00
6756;DHT22;3415;51.148;7.014;2023-03-14T14:00:02;7.30;1.00
6756;DHT22;3415;51.148;7.014;2023-03-14T14:02:35;7.50;1.00
6756;DHT22;3415;51.148;7.014;2023-03-14T14:05:04;6.80;1.00
6756;DHT22;3415;51.148;7.014;2023-03-14T14:07:32;6.50;1.00
6756;DHT22;3415;51.148;7.014;2023-03-14T14:09:59;6.50;1.00
6756;DHT22;3415;51.148;7.014;2023-03-14T14:12:28;6.50;1.00
6756;DHT22;3415;51.148;7.014;2023-03-14T14:14:59;6.60;1.00
6756;DHT22;3415;51.148;7.014;2023-03-14T14:17:30;6.70;1.00
6756;DHT22;3415;51.148;7.014;2023-03-14T14:19:59;6.80;1.00
6756;DHT22;3415;51.148;7.014;2023-03-14T14:22:27;6.80;1.00
6756;DHT22;3415;51.148;7.014;2023-03-14T14:24:54;7.00;1.00
6756;DHT22;3415;51.148;7.014;2023-03-14T14:27:27;7.00;1.00
6756;DHT22;3415;51.148;7.014;2023-03-14T14:29:58;6.90;1.00
6756;DHT22;3415;51.148;7.014;2023-03-14T14:32:26;6.90;1.00
6756;DHT22;3415;51.148;7.014;2023-03-14T14:34:57;6.90;1.00
6756;DHT22;3415;51.148;7.014;2023-03-14T14:37:27;7.00;1.00
6756;DHT22;3415;51.148;7.014;2023-03-14T14:39:58;7.20;1.00
6756;DHT22;3415;51.148;7.014;2023-03-14T14:42:27;7.20;1.00
6756;DHT22;3415;51.148;7.014;2023-03-14T14:44:56;7.20;1.00
6756;DHT22;3415;51.148;7.014;2023-03-14T14:47:24;7.20;1.00
6756;DHT22;3415;51.148;7.014;2023-03-14T14:49:53;7.20;1.00
6756;DHT22;3415;51.148;7.014;2023-03-14T14:52:21;7.60;1.00
6756;DHT22;3415;51.148;7.014;2023-03-14T14:54:53;7.70;1.00
6756;DHT22;3415;51.148;7.014;2023-03-14T14:57:25;7.70;1.00
6756;DHT22;3415;51.148;7.014;2023-03-14T14:59:55;7.70;1.00
6756;DHT22;3415;51.148;7.014;2023-03-14T15:02:29;7.80;1.00
6756;DHT22;3415;51.148;7.014;2023-03-14T15:04:57;7.70;1.00
6756;DHT22;3415;51.148;7.014;2023-03-14T15:07:24;7.70;1.00
6756;DHT22;3415;51.148;7.014;2023-03-14T15:09:52;7.80;1.00
6756;DHT22;3415;51.148;7.014;2023-03-14T15:12:18;7.90;1.00
6756;DHT22;3415;51.148;7.014;2023-03-14T15:14:46;7.90;1.00
6756;DHT22;3415;51.148;7.014;2023-03-14T15:17:13;7.80;1.00
6756;DHT22;3415;51.148;7.014;2023-03-14T15:19:40;7.80;1.00
6756;DHT22;3415;51.148;7.014;2023-03-14T15:22:11;7.70;1.00
6756;DHT22;3415;51.148;7.014;2023-03-14T15:24:39;7.70;1.00
6756;DHT22;3415;51.148;7.014;2023-03-14T15:27:12;7.60;1.00
6756;DHT22;3415;51.148;7.014;2023-03-14T15:29:39;7.50;1.00
6756;DHT22;3415;51.148;7.014;2023-03-14T15:32:08;7.60;1.00
6756;DHT22;3415;51.148;7.014;2023-03-14T15:34:35;7.60;1.00
6756;DHT22;3415;51.148;7.014;2023-03-14T15:37:02;7.60;1.00
6756;DHT22;3415;51.148;7.014;2023-03-14T15:39:33;7.60;1.00
6756;DHT22;3415;51.148;7.014;2023-03-14T15:41:59;7.40;1.00
6756;DHT22;3415;51.148;7.014;2023-03-14T15:44:28;7.30;1.00
6756;DHT22;3415;51.148;7.014;2023-03-14T15:46:54;7.30;1.00
6756;DHT22;3415;51.148;7.014;2023-03-14T15:49:21;7.30;1.00
6756;DHT22;3415;51.148;7.014;2023-03-14T15:51:48;7.10;1.00
6756;DHT22;3415;51.148;7.014;2023-03-14T15:54:15;7.10;1.00
6756;DHT22;3415;51.148;7.014;2023-03-14T15:56:42;7.10;1.00
6756;DHT22;3415;51.148;7.014;2023-03-14T15:59:08;7.10;1.00
6756;DHT22;3415;51.148;7.014;2023-03-14T16:01:37;7.20;1.00
6756;DHT22;3415;51.148;7.014;2023-03-14T16:04:03;7.10;1.00
6756;DHT22;3415;51.148;7.014;2023-03-14T16:06:30;7.10;1.00
6756;DHT22;3415;51.148;7.014;2023-03-14T16:08:57;7.10;1.00
6756;DHT22;3415;51.148;7.014;2023-03-14T16:11:25;7.10;1.00
6756;DHT22;3415;51.148;7.014;2023-03-14T16:13:51;7.10;1.00
6756;DHT22;3415;51.148;7.014;2023-03-14T16:16:18;7.10;1.00
6756;DHT22;3415;51.148;7.014;2023-03-14T16:18:46;7.10;1.00
6756;DHT22;3415;51.148;7.014;2023-03-14T16:21:15;7.00;1.00
6756;DHT22;3415;51.148;7.014;2023-03-14T16:23:43;7.00;1.00
6756;DHT22;3415;51.148;7.014;2023-03-14T16:26:11;7.00;1.00
6756;DHT22;3415;51.148;7.014;2023-03-14T16:28:40;6.90;1.00
6756;DHT22;3415;51.148;7.014;2023-03-14T16:31:08;6.80;1.00
6756;DHT22;3415;51.148;7.014;2023-03-14T16:33:36;6.80;1.00
6756;DHT22;3415;51.148;7.014;2023-03-14T16:36:06;6.80;1.00
6756;DHT22;3415;51.148;7.014;2023-03-14T16:38:34;6.70;1.00
6756;DHT22;3415;51.148;7.014;2023-03-14T16:41:03;6.70;1.00
6756;DHT22;3415;51.148;7.014;2023-03-14T16:43:30;6.70;1.00
6756;DHT22;3415;51.148;7.014;2023-03-14T16:45:59;6.60;1.00
6756;DHT22;3415;51.148;7.014;2023-03-14T16:48:26;6.60;1.00
6756;DHT22;3415;51.148;7.014;2023-03-14T16:50:53;6.60;99.90
6756;DHT22;3415;51.148;7.014;2023-03-14T16:53:22;6.50;99.90
6756;DHT22;3415;51.148;7.014;2023-03-14T16:55:52;6.60;1.00
6756;DHT22;3415;51.148;7.014;2023-03-14T16:58:18;6.60;1.00
6756;DHT22;3415;51.148;7.014;2023-03-14T17:00:46;6.70;1.00